Time;durP1;ratioP1;P1;durP2;ratioP2;P2;SDS_P1;SDS_P2;PMS_P1;PMS_P2;Temp;Humidity;BMP_temperature;BMP_pressure;BME280_temperature;BME280_humidity;BME280_pressure;Samples;Min_cycle;Max_cycle;Signal;HPM_P1;HPM_P2
2023/04/26 00:01:20;;;;;;;7.10;6.43;;;12.80;77.00;;;;;;5045429;28;20561;-64
2023/04/26 00:03:47;;;;;;;7.13;6.43;;;12.90;76.90;;;;;;5032964;28;20507;-65
2023/04/26 00:06:15;;;;;;;8.27;7.47;;;12.80;76.60;;;;;;5032863;28;20445;-64
2023/04/26 00:08:42;;;;;;;7.20;6.50;;;12.80;76.40;;;;;;5051519;28;20448;-64
2023/04/26 00:11:10;;;;;;;7.70;6.87;;;12.70;76.30;;;;;;5051440;28;20524;-64
2023/04/26 00:13:37;;;;;;;7.10;6.40;;;12.70;76.40;;;;;;5052438;28;20448;-64
2023/04/26 00:16:04;;;;;;;6.77;6.10;;;12.60;76.40;;;;;;5050546;28;20452;-64
2023/04/26 00:18:31;;;;;;;7.17;6.37;;;12.60;76.50;;;;;;5047793;28;20815;-64
2023/04/26 00:20:58;;;;;;;6.23;5.73;;;12.60;76.50;;;;;;5036498;28;20479;-64
2023/04/26 00:23:25;;;;;;;5.93;5.40;;;12.50;76.00;;;;;;5047757;28;20483;-64
2023/04/26 00:25:52;;;;;;;5.87;5.37;;;12.50;75.80;;;;;;5033949;28;20481;-64
2023/04/26 00:28:20;;;;;;;5.67;5.17;;;12.40;75.70;;;;;;5047120;28;20460;-65
2023/04/26 00:30:47;;;;;;;5.00;4.60;;;12.40;75.80;;;;;;5031719;28;20489;-64
2023/04/26 00:33:14;;;;;;;4.80;4.40;;;12.40;75.40;;;;;;5032167;28;20449;-64
2023/04/26 00:35:41;;;;;;;5.23;4.83;;;12.30;75.30;;;;;;5031104;28;20821;-64
2023/04/26 00:38:08;;;;;;;6.30;5.70;;;12.30;75.40;;;;;;5031245;28;20827;-64
2023/04/26 00:40:35;;;;;;;6.37;5.60;;;12.20;75.50;;;;;;5047015;28;20450;-65
2023/04/26 00:43:03;;;;;;;5.70;5.20;;;12.20;75.40;;;;;;5049150;28;20452;-64
2023/04/26 00:45:31;;;;;;;5.60;5.10;;;12.20;74.90;;;;;;5033018;28;20453;-64
2023/04/26 00:48:01;;;;;;;5.83;5.20;;;12.20;74.70;;;;;;5041212;28;20452;-64
2023/04/26 00:50:28;;;;;;;5.70;5.20;;;12.20;74.70;;;;;;5030933;28;20489;-64
2023/04/26 00:52:56;;;;;;;6.33;5.60;;;12.10;74.60;;;;;;5031148;28;20458;-64
2023/04/26 00:55:25;;;;;;;6.50;5.80;;;12.10;74.60;;;;;;5031651;28;20457;-64
2023/04/26 00:57:52;;;;;;;6.63;5.93;;;12.00;74.50;;;;;;5031374;28;20481;-64
2023/04/26 01:00:20;;;;;;;6.03;5.40;;;12.00;74.50;;;;;;5031493;28;20445;-64
2023/04/26 01:02:48;;;;;;;8.77;5.43;;;11.90;74.40;;;;;;5039388;28;20444;-65
2023/04/26 01:05:15;;;;;;;7.87;7.07;;;11.90;74.40;;;;;;5047713;28;20475;-64
2023/04/26 01:07:42;;;;;;;62.43;7.33;;;11.90;74.60;;;;;;5041360;28;20989;-64
2023/04/26 01:10:09;;;;;;;9.87;7.37;;;11.80;74.40;;;;;;5047604;28;20486;-64
2023/04/26 01:12:37;;;;;;;8.37;7.30;;;11.80;74.60;;;;;;5031687;28;20452;-64
2023/04/26 01:15:05;;;;;;;8.97;7.30;;;11.70;75.00;;;;;;5042267;28;20948;-64
2023/04/26 01:17:32;;;;;;;7.53;6.80;;;11.70;75.20;;;;;;5031023;28;20973;-64
2023/04/26 01:20:00;;;;;;;7.10;6.40;;;11.60;75.10;;;;;;5033578;28;21021;-64
2023/04/26 01:22:27;;;;;;;7.23;6.47;;;11.70;75.00;;;;;;5042752;28;20453;-64
2023/04/26 01:24:57;;;;;;;7.47;6.77;;;11.60;74.60;;;;;;5031711;28;20477;-64
2023/04/26 01:27:24;;;;;;;7.23;6.53;;;11.60;74.70;;;;;;5033582;28;20460;-64
2023/04/26 01:29:51;;;;;;;7.67;6.63;;;11.60;75.30;;;;;;5054059;28;20490;-64
2023/04/26 01:32:18;;;;;;;7.43;6.73;;;11.50;74.50;;;;;;5038863;28;20473;-64
2023/04/26 01:34:45;;;;;;;7.70;6.87;;;11.50;74.50;;;;;;5042643;28;20444;-64
2023/04/26 01:37:12;;;;;;;7.47;6.77;;;11.50;74.50;;;;;;5053945;28;20480;-64
2023/04/26 01:39:39;;;;;;;8.20;7.40;;;11.50;74.50;;;;;;5052406;28;20454;-64
2023/04/26 01:42:07;;;;;;;8.07;7.27;;;11.50;74.60;;;;;;5044920;28;20471;-64
2023/04/26 01:44:34;;;;;;;7.30;6.60;;;11.50;74.60;;;;;;5039600;28;20469;-64
2023/04/26 01:47:01;;;;;;;8.20;7.40;;;11.50;74.60;;;;;;5038633;28;20483;-64
2023/04/26 01:49:28;;;;;;;8.43;6.63;;;11.40;74.40;;;;;;5049913;28;20458;-64
2023/04/26 01:51:55;;;;;;;7.27;6.50;;;11.40;74.50;;;;;;5045284;28;20499;-64
2023/04/26 01:54:21;;;;;;;7.60;6.80;;;11.40;74.30;;;;;;5035132;28;20451;-64
2023/04/26 01:56:48;;;;;;;6.83;6.13;;;11.30;74.10;;;;;;5039900;28;20453;-64
2023/04/26 01:59:16;;;;;;;7.40;6.70;;;11.30;73.90;;;;;;5039681;28;20472;-64
2023/04/26 02:01:43;;;;;;;8.50;7.33;;;11.30;74.20;;;;;;5050378;28;20442;-64
2023/04/26 02:04:10;;;;;;;7.73;6.93;;;11.30;74.40;;;;;;5046261;28;20444;-64
2023/04/26 02:06:37;;;;;;;8.17;7.37;;;11.30;74.50;;;;;;5050673;28;20531;-64
2023/04/26 02:09:04;;;;;;;8.83;7.93;;;11.30;74.50;;;;;;5034867;28;20476;-64
2023/04/26 02:11:31;;;;;;;8.37;7.27;;;11.20;74.20;;;;;;5049021;28;20498;-64
2023/04/26 02:13:58;;;;;;;7.80;6.93;;;11.20;74.10;;;;;;5054283;28;20448;-64
2023/04/26 02:16:26;;;;;;;7.20;6.50;;;11.20;74.00;;;;;;5043958;28;20445;-64
2023/04/26 02:18:53;;;;;;;7.00;6.30;;;11.10;73.50;;;;;;5040536;28;20824;-64
2023/04/26 02:21:21;;;;;;;6.00;5.40;;;11.10;74.30;;;;;;5050391;28;20441;-64
2023/04/26 02:23:48;;;;;;;6.00;5.40;;;11.10;73.40;;;;;;5034679;28;20967;-64
2023/04/26 02:26:15;;;;;;;5.93;5.37;;;11.10;73.00;;;;;;5044185;28;20452;-64
2023/04/26 02:28:42;;;;;;;5.70;5.10;;;11.10;72.60;;;;;;5035166;28;20457;-64
2023/04/26 02:31:09;;;;;;;5.53;5.03;;;11.00;72.40;;;;;;5051490;28;20488;-64
2023/04/26 02:33:38;;;;;;;5.50;4.93;;;11.00;72.30;;;;;;5053528;28;20456;-64
2023/04/26 02:36:05;;;;;;;8.73;5.50;;;10.90;72.10;;;;;;5048057;28;20808;-64
2023/04/26 02:38:34;;;;;;;6.20;5.27;;;10.90;72.00;;;;;;5052828;28;20472;-64
2023/04/26 02:41:02;;;;;;;5.40;4.90;;;10.80;72.00;;;;;;5052124;28;20959;-64
2023/04/26 02:43:29;;;;;;;5.97;5.37;;;10.70;71.80;;;;;;5053011;28;20543;-64
2023/04/26 02:45:57;;;;;;;5.90;5.40;;;10.70;71.70;;;;;;5034155;28;20452;-64
2023/04/26 02:48:24;;;;;;;5.53;4.80;;;10.70;72.00;;;;;;5034701;28;20465;-64
2023/04/26 02:50:52;;;;;;;5.83;5.23;;;10.70;72.00;;;;;;5033928;28;20480;-64
2023/04/26 02:53:19;;;;;;;5.57;5.07;;;10.60;71.60;;;;;;5052092;28;21177;-64
2023/04/26 02:55:46;;;;;;;6.13;5.30;;;10.60;71.50;;;;;;5048355;28;20537;-64
2023/04/26 02:58:14;;;;;;;5.90;5.37;;;10.50;71.50;;;;;;5051113;28;20477;-64
2023/04/26 03:00:46;;;;;;;5.90;5.30;;;10.50;71.30;;;;;;5052216;28;20449;-64
2023/04/26 03:03:12;;;;;;;6.10;5.20;;;10.40;71.20;;;;;;5046098;28;20468;-64
2023/04/26 03:05:40;;;;;;;5.17;4.67;;;10.40;71.20;;;;;;5042630;28;21172;-64
2023/04/26 03:08:09;;;;;;;5.57;5.07;;;10.40;71.20;;;;;;5052376;28;20475;-64
2023/04/26 03:10:36;;;;;;;6.00;5.40;;;10.30;71.10;;;;;;5036658;28;20488;-64
2023/04/26 03:13:04;;;;;;;5.47;4.90;;;10.30;71.20;;;;;;5051816;28;20445;-64
2023/04/26 03:15:31;;;;;;;5.33;4.83;;;10.30;71.30;;;;;;5049665;28;20463;-64
2023/04/26 03:17:58;;;;;;;6.40;5.37;;;10.20;71.10;;;;;;5044427;28;20476;-64
2023/04/26 03:20:25;;;;;;;5.13;4.63;;;10.20;71.10;;;;;;5053071;28;20464;-64
2023/04/26 03:22:53;;;;;;;5.13;4.60;;;10.20;70.80;;;;;;5040539;28;20481;-64
2023/04/26 03:25:21;;;;;;;4.63;4.23;;;10.20;70.80;;;;;;5052681;28;20476;-64
2023/04/26 03:27:48;;;;;;;4.37;3.97;;;10.10;70.50;;;;;;5052024;28;20448;-64
2023/04/26 03:30:15;;;;;;;4.90;4.47;;;10.10;70.50;;;;;;5052483;28;20871;-64
2023/04/26 03:32:42;;;;;;;5.40;4.30;;;10.10;70.50;;;;;;5040981;28;20458;-64
2023/04/26 03:35:10;;;;;;;4.23;3.93;;;10.10;70.50;;;;;;5034782;28;20441;-64
2023/04/26 03:37:38;;;;;;;4.60;4.03;;;10.00;70.40;;;;;;5052731;28;20991;-64
2023/04/26 03:40:07;;;;;;;3.77;3.47;;;10.00;70.50;;;;;;5052111;28;20456;-64
2023/04/26 03:42:35;;;;;;;3.60;3.30;;;10.00;70.50;;;;;;5034866;28;20457;-64
2023/04/26 03:45:02;;;;;;;4.37;4.00;;;9.90;71.30;;;;;;5032758;28;20450;-64
2023/04/26 03:47:29;;;;;;;4.40;4.10;;;9.90;71.40;;;;;;5039937;28;20461;-64
2023/04/26 03:49:56;;;;;;;3.97;3.67;;;9.80;71.50;;;;;;5037713;28;20475;-64
2023/04/26 03:52:23;;;;;;;4.53;4.20;;;9.80;71.40;;;;;;5042401;28;20568;-64
2023/04/26 03:54:50;;;;;;;4.20;3.90;;;9.80;71.50;;;;;;5042214;28;20445;-64
2023/04/26 03:57:17;;;;;;;4.10;3.80;;;9.80;71.50;;;;;;5033043;28;20568;-65
2023/04/26 03:59:46;;;;;;;4.47;4.07;;;9.80;71.60;;;;;;5047405;28;20475;-64
2023/04/26 04:02:13;;;;;;;4.10;3.70;;;9.70;71.50;;;;;;5051879;28;20818;-64
2023/04/26 04:04:40;;;;;;;4.60;4.20;;;9.70;71.70;;;;;;5051221;28;20448;-64
2023/04/26 04:07:07;;;;;;;4.77;4.27;;;9.70;72.10;;;;;;5048582;28;20460;-64
2023/04/26 04:09:34;;;;;;;4.47;4.10;;;9.70;72.30;;;;;;5050511;28;20482;-64
2023/04/26 04:12:01;;;;;;;6.10;4.50;;;9.60;72.60;;;;;;5046653;28;20477;-64
2023/04/26 04:14:28;;;;;;;5.23;4.73;;;9.60;72.70;;;;;;5042069;28;20475;-64
2023/04/26 04:16:58;;;;;;;5.23;3.90;;;9.60;72.60;;;;;;5049610;28;20840;-64
2023/04/26 04:19:25;;;;;;;5.23;4.73;;;9.60;72.10;;;;;;5044580;28;20453;-64
2023/04/26 04:21:52;;;;;;;4.40;4.00;;;9.60;72.00;;;;;;5036301;28;20440;-64
2023/04/26 04:24:18;;;;;;;6.20;5.30;;;9.60;72.10;;;;;;5041577;28;20451;-64
2023/04/26 04:26:46;;;;;;;6.20;5.37;;;9.50;72.20;;;;;;5032277;28;20461;-64
2023/04/26 04:29:12;;;;;;;5.63;5.00;;;9.50;72.70;;;;;;5031998;28;20564;-64
2023/04/26 04:31:40;;;;;;;6.33;5.73;;;9.50;72.60;;;;;;5032126;28;20576;-64
2023/04/26 04:34:08;;;;;;;5.60;5.10;;;9.50;72.20;;;;;;5032097;28;20453;-64
2023/04/26 04:36:36;;;;;;;6.17;5.20;;;9.40;71.90;;;;;;5042908;28;20540;-64
2023/04/26 04:39:04;;;;;;;5.73;4.90;;;9.50;71.90;;;;;;5032947;28;20984;-64
2023/04/26 04:41:33;;;;;;;5.93;5.33;;;9.40;71.80;;;;;;5031272;28;20519;-64
2023/04/26 04:44:00;;;;;;;5.60;5.10;;;9.50;72.00;;;;;;5031926;28;20456;-64
2023/04/26 04:46:27;;;;;;;6.30;5.60;;;9.40;72.10;;;;;;5042347;28;20453;-64
2023/04/26 04:48:54;;;;;;;5.53;5.03;;;9.50;72.20;;;;;;5038430;28;20511;-64
2023/04/26 04:51:22;;;;;;;6.20;5.60;;;9.50;72.10;;;;;;5033561;28;20480;-64
2023/04/26 04:53:50;;;;;;;5.87;5.27;;;9.50;71.90;;;;;;5050758;28;20539;-64
2023/04/26 04:56:17;;;;;;;5.20;4.70;;;9.40;71.90;;;;;;5034109;28;20504;-64
2023/04/26 04:58:44;;;;;;;5.37;4.87;;;9.50;71.90;;;;;;5035134;28;20464;-64
2023/04/26 05:01:10;;;;;;;6.03;5.23;;;9.50;71.90;;;;;;5047465;28;20473;-63
2023/04/26 05:03:38;;;;;;;5.90;4.90;;;9.50;71.80;;;;;;5050869;28;20535;-65
2023/04/26 05:06:05;;;;;;;6.77;5.03;;;9.40;71.40;;;;;;5051005;28;20467;-65
2023/04/26 05:08:33;;;;;;;6.03;5.40;;;9.40;71.80;;;;;;5039648;28;20477;-65
2023/04/26 05:11:00;;;;;;;5.60;4.93;;;9.40;72.00;;;;;;5031344;28;20891;-65
2023/04/26 05:13:27;;;;;;;5.37;4.87;;;9.40;72.30;;;;;;5040666;28;20548;-64
2023/04/26 05:15:54;;;;;;;5.13;4.63;;;9.40;73.20;;;;;;5039108;28;20540;-65
2023/04/26 05:18:21;;;;;;;5.67;5.10;;;9.50;73.00;;;;;;5046461;28;20452;-65
2023/04/26 05:20:48;;;;;;;6.00;5.40;;;9.50;73.00;;;;;;5030803;28;20864;-65
2023/04/26 05:23:15;;;;;;;6.60;5.07;;;9.50;73.00;;;;;;5031238;28;20449;-65
2023/04/26 05:25:43;;;;;;;6.03;5.43;;;9.60;73.20;;;;;;5030931;28;20801;-64
2023/04/26 05:28:11;;;;;;;5.50;5.00;;;9.60;73.10;;;;;;5059720;28;20979;-64
2023/04/26 05:30:38;;;;;;;5.20;4.70;;;9.70;73.60;;;;;;5054923;28;20458;-65
2023/04/26 05:33:05;;;;;;;5.40;4.90;;;9.70;73.90;;;;;;5040314;28;20587;-65
2023/04/26 05:35:32;;;;;;;4.93;4.53;;;9.70;73.70;;;;;;5046861;28;20475;-65
2023/04/26 05:37:59;;;;;;;5.33;4.83;;;9.80;74.00;;;;;;5040978;28;20471;-66
2023/04/26 05:40:27;;;;;;;5.00;4.50;;;9.80;74.00;;;;;;5039847;28;20453;-65
2023/04/26 05:42:55;;;;;;;7.10;5.27;;;9.80;74.10;;;;;;5047094;28;20442;-64
2023/04/26 05:45:22;;;;;;;7.93;5.30;;;9.90;74.40;;;;;;5048587;28;20457;-65
2023/04/26 05:47:50;;;;;;;6.07;5.47;;;9.90;74.40;;;;;;5031490;28;20479;-65
2023/04/26 05:50:17;;;;;;;6.50;5.47;;;10.00;73.50;;;;;;5032031;28;21012;-64
2023/04/26 05:52:43;;;;;;;8.27;6.50;;;10.00;73.60;;;;;;5037713;28;20972;-65
2023/04/26 05:55:12;;;;;;;6.93;6.23;;;10.10;73.90;;;;;;5033530;28;20814;-64
2023/04/26 05:57:39;;;;;;;6.63;5.93;;;10.10;74.10;;;;;;5050306;28;20525;-64
2023/04/26 06:00:11;;;;;;;6.27;5.67;;;10.10;74.20;;;;;;5035378;28;20465;-66
2023/04/26 06:02:37;;;;;;;6.20;5.60;;;10.20;74.70;;;;;;5045759;28;20498;-64
2023/04/26 06:05:05;;;;;;;6.83;6.13;;;10.30;74.80;;;;;;5030994;28;20527;-65
2023/04/26 06:07:32;;;;;;;7.07;6.37;;;10.30;74.70;;;;;;5043188;28;20480;-64
2023/04/26 06:10:01;;;;;;;6.43;5.83;;;10.40;74.80;;;;;;5039955;28;20453;-65
2023/04/26 06:12:28;;;;;;;7.33;6.27;;;10.50;75.00;;;;;;5037387;28;21072;-65
2023/04/26 06:14:55;;;;;;;7.20;6.50;;;10.60;75.40;;;;;;5053229;28;20948;-65
2023/04/26 06:17:24;;;;;;;8.93;6.40;;;10.60;75.40;;;;;;5055521;28;20452;-65
2023/04/26 06:19:51;;;;;;;7.53;6.83;;;10.70;75.70;;;;;;5055002;28;20479;-65
2023/04/26 06:22:17;;;;;;;7.23;6.30;;;10.70;75.60;;;;;;5046261;28;20455;-64
2023/04/26 06:24:44;;;;;;;8.17;7.17;;;10.80;75.80;;;;;;5045557;28;20488;-65
2023/04/26 06:27:11;;;;;;;8.17;6.80;;;10.90;75.90;;;;;;5054999;28;20526;-65
2023/04/26 06:29:38;;;;;;;9.63;7.27;;;10.90;76.70;;;;;;5050271;28;20463;-65
2023/04/26 06:32:05;;;;;;;8.57;6.67;;;11.00;75.90;;;;;;5038382;28;20497;-66
2023/04/26 06:34:34;;;;;;;7.97;5.90;;;11.00;74.90;;;;;;5038042;28;20883;-66
2023/04/26 06:37:01;;;;;;;9.07;6.40;;;11.20;73.90;;;;;;5033351;28;20461;-65
2023/04/26 06:39:28;;;;;;;9.83;6.17;;;11.20;73.80;;;;;;5032902;28;20483;-64
2023/04/26 06:41:55;;;;;;;9.33;6.37;;;11.30;73.80;;;;;;5032664;28;20999;-64
2023/04/26 06:44:22;;;;;;;8.63;5.97;;;11.30;73.70;;;;;;5033863;28;20453;-64
2023/04/26 06:46:49;;;;;;;8.80;6.10;;;11.40;74.00;;;;;;5033021;28;20452;-64
2023/04/26 06:49:16;;;;;;;7.77;5.40;;;11.50;74.00;;;;;;5033175;28;20453;-64
2023/04/26 06:51:44;;;;;;;8.97;5.73;;;11.50;73.80;;;;;;5032977;28;20480;-65
2023/04/26 06:54:13;;;;;;;8.73;5.77;;;11.60;74.10;;;;;;5032080;28;20449;-64
2023/04/26 06:56:39;;;;;;;7.47;5.70;;;11.70;73.60;;;;;;5032860;28;20452;-64
2023/04/26 06:59:07;;;;;;;7.33;5.93;;;11.80;74.20;;;;;;5032837;28;20453;-65
2023/04/26 07:01:35;;;;;;;14.43;7.43;;;11.90;74.50;;;;;;5032508;28;20552;-64
2023/04/26 07:04:03;;;;;;;8.00;6.10;;;11.90;73.00;;;;;;5032443;28;20484;-65
2023/04/26 07:06:31;;;;;;;8.10;6.13;;;12.00;73.20;;;;;;5035434;28;20449;-64
2023/04/26 07:09:01;;;;;;;9.17;5.80;;;12.00;72.90;;;;;;5052390;28;20789;-64
2023/04/26 07:11:28;;;;;;;8.70;5.87;;;12.00;72.50;;;;;;5052663;28;20456;-64
2023/04/26 07:13:55;;;;;;;7.07;4.73;;;12.10;71.40;;;;;;5052063;28;21151;-64
2023/04/26 07:16:22;;;;;;;6.13;5.27;;;12.20;71.50;;;;;;5052181;28;20543;-64
2023/04/26 07:18:50;;;;;;;7.07;4.90;;;12.30;71.10;;;;;;5052487;28;20448;-65
2023/04/26 07:21:17;;;;;;;7.33;5.20;;;12.30;70.10;;;;;;5052337;28;20535;-65
2023/04/26 07:23:44;;;;;;;8.03;5.20;;;12.40;70.20;;;;;;5051741;28;20475;-65
2023/04/26 07:26:12;;;;;;;7.67;5.73;;;12.40;69.80;;;;;;5052090;28;20448;-64
2023/04/26 07:28:39;;;;;;;9.23;5.37;;;12.60;70.80;;;;;;5052195;28;20444;-64
2023/04/26 07:31:06;;;;;;;8.00;5.03;;;12.60;69.90;;;;;;5052276;28;20471;-65
2023/04/26 07:33:33;;;;;;;7.17;4.97;;;12.70;70.80;;;;;;5051769;28;21158;-64
2023/04/26 07:36:01;;;;;;;6.47;4.90;;;12.80;71.00;;;;;;5051757;28;20450;-64
2023/04/26 07:38:28;;;;;;;5.20;4.33;;;12.90;69.50;;;;;;5051783;28;20506;-64
2023/04/26 07:40:55;;;;;;;7.90;5.27;;;13.00;68.80;;;;;;5051880;28;20474;-64
2023/04/26 07:43:24;;;;;;;9.17;5.00;;;13.10;68.80;;;;;;5051648;28;20556;-64
2023/04/26 07:45:51;;;;;;;6.10;5.47;;;13.10;69.20;;;;;;5051906;28;20798;-64
2023/04/26 07:48:18;;;;;;;7.77;4.40;;;13.20;69.60;;;;;;5052265;28;20456;-64
2023/04/26 07:50:45;;;;;;;7.87;5.03;;;13.30;69.70;;;;;;5051831;28;20448;-64
2023/04/26 07:53:11;;;;;;;8.03;4.77;;;13.50;68.70;;;;;;5051641;28;20475;-64
2023/04/26 07:55:38;;;;;;;8.37;4.63;;;13.50;67.70;;;;;;5051261;28;20448;-64
2023/04/26 07:58:05;;;;;;;8.67;4.80;;;13.60;68.20;;;;;;5049984;28;20475;-64
2023/04/26 08:00:37;;;;;;;7.40;4.53;;;13.60;68.00;;;;;;5051422;28;20940;-64
2023/04/26 08:03:04;;;;;;;7.77;4.57;;;13.80;68.30;;;;;;5051649;28;20456;-64
2023/04/26 08:05:31;;;;;;;6.40;4.23;;;13.90;67.90;;;;;;5050736;28;20445;-64
2023/04/26 08:07:57;;;;;;;6.27;4.37;;;13.90;67.00;;;;;;5051359;28;20456;-64
2023/04/26 08:10:25;;;;;;;8.00;4.13;;;14.00;66.80;;;;;;5051183;28;20457;-64
2023/04/26 08:12:52;;;;;;;7.33;4.17;;;14.10;63.90;;;;;;5051308;28;20603;-65
2023/04/26 08:15:19;;;;;;;5.77;4.07;;;14.20;64.10;;;;;;5050994;28;20511;-64
2023/04/26 08:17:47;;;;;;;6.07;4.20;;;14.20;64.40;;;;;;5051133;28;20463;-64
2023/04/26 08:20:14;;;;;;;4.73;3.50;;;14.30;63.90;;;;;;5050530;28;20492;-64
2023/04/26 08:22:41;;;;;;;4.70;3.30;;;14.40;64.10;;;;;;5051099;28;20796;-64
2023/04/26 08:25:08;;;;;;;7.00;3.43;;;14.50;64.50;;;;;;5050684;28;20448;-64
2023/04/26 08:27:36;;;;;;;5.83;3.90;;;14.70;64.80;;;;;;5050915;28;20448;-64
2023/04/26 08:30:03;;;;;;;5.37;3.83;;;14.70;62.70;;;;;;5050874;28;20518;-64
2023/04/26 08:32:30;;;;;;;6.83;3.37;;;14.90;62.90;;;;;;5050844;28;20487;-65
2023/04/26 08:34:58;;;;;;;7.77;3.83;;;14.90;61.70;;;;;;5050196;28;20444;-64
2023/04/26 08:37:25;;;;;;;7.40;3.97;;;15.00;62.50;;;;;;5050028;28;20476;-64
2023/04/26 08:39:52;;;;;;;4.73;3.20;;;15.00;60.70;;;;;;5051094;28;20450;-64
2023/04/26 08:42:20;;;;;;;7.50;3.57;;;15.10;59.80;;;;;;5051080;28;20452;-64
2023/04/26 08:44:46;;;;;;;7.40;3.33;;;15.10;57.70;;;;;;5050733;28;20454;-64
2023/04/26 08:47:18;;;;;;;4.80;3.07;;;15.10;57.50;;;;;;5050528;28;20543;-64
2023/04/26 08:49:46;;;;;;;7.63;3.90;;;15.20;57.20;;;;;;5050249;28;20468;-64
2023/04/26 08:52:15;;;;;;;5.60;3.40;;;15.30;57.20;;;;;;5050543;28;20480;-64
2023/04/26 08:54:43;;;;;;;6.87;3.77;;;15.30;56.60;;;;;;5050273;28;20514;-64
2023/04/26 08:57:10;;;;;;;5.63;3.50;;;15.50;56.90;;;;;;5050455;28;20466;-64
2023/04/26 08:59:38;;;;;;;7.17;3.50;;;15.60;58.20;;;;;;5050725;28;20464;-64
2023/04/26 09:02:06;;;;;;;4.97;3.43;;;15.80;58.00;;;;;;5050588;28;20844;-64
2023/04/26 09:04:33;;;;;;;4.77;3.13;;;15.90;57.50;;;;;;5050151;28;20450;-64
2023/04/26 09:07:02;;;;;;;4.03;3.47;;;16.00;56.50;;;;;;5050187;28;20482;-64
2023/04/26 09:09:36;;;;;;;9.03;3.30;;;16.00;54.80;;;;;;5050392;28;20452;-64
2023/04/26 09:12:03;;;;;;;4.90;3.27;;;16.00;54.60;;;;;;5050431;28;20508;-65
2023/04/26 09:14:30;;;;;;;5.40;2.77;;;16.10;56.10;;;;;;5050313;28;20456;-65
2023/04/26 09:16:57;;;;;;;5.30;3.10;;;16.10;55.40;;;;;;5049636;28;20459;-65
2023/04/26 09:19:36;;;;;;;5.43;3.10;;;16.20;56.00;;;;;;5049853;28;20767;-65
2023/04/26 09:22:03;;;;;;;4.40;2.70;;;16.20;55.70;;;;;;5030302;28;20456;-65
2023/04/26 09:24:47;;;;;;;5.17;3.10;;;16.30;57.00;;;;;;5030575;28;20445;-65
2023/04/26 09:27:14;;;;;;;6.93;3.37;;;16.40;54.50;;;;;;5029953;28;20449;-65
2023/04/26 09:29:41;;;;;;;3.83;3.40;;;16.50;54.20;;;;;;5030159;28;20449;-65
2023/04/26 09:32:08;;;;;;;5.97;3.10;;;16.60;53.30;;;;;;5030100;28;20457;-65
2023/04/26 09:34:46;;;;;;;6.03;3.37;;;16.70;53.50;;;;;;5030228;28;20445;-65
2023/04/26 09:37:12;;;;;;;4.30;2.87;;;16.70;52.10;;;;;;5044356;28;20837;-65
2023/04/26 09:39:43;;;;;;;4.57;3.10;;;16.60;50.50;;;;;;5050176;28;20455;-65
2023/04/26 09:42:10;;;;;;;6.07;3.13;;;16.60;50.30;;;;;;5049898;28;20456;-64
2023/04/26 09:44:38;;;;;;;5.60;3.37;;;16.50;50.50;;;;;;5049853;28;21162;-65
2023/04/26 09:47:07;;;;;;;6.80;2.80;;;16.40;50.00;;;;;;5049787;28;20497;-65
2023/04/26 09:49:47;;;;;;;6.57;2.60;;;16.50;50.70;;;;;;5051535;28;20448;-65
2023/04/26 09:52:14;;;;;;;5.20;2.87;;;16.60;51.20;;;;;;5054096;28;20555;-65
2023/04/26 09:54:45;;;;;;;6.20;3.20;;;16.70;51.80;;;;;;5053812;28;20467;-65
2023/04/26 09:57:14;;;;;;;6.23;2.87;;;16.90;51.70;;;;;;5053998;28;20451;-65
2023/04/26 09:59:45;;;;;;;3.60;2.50;;;17.00;52.10;;;;;;5053839;28;20894;-64
2023/04/26 10:02:20;;;;;;;6.03;2.87;;;17.20;50.80;;;;;;5053616;28;20531;-64
2023/04/26 10:04:48;;;;;;;4.43;2.40;;;17.40;50.90;;;;;;5053732;28;20892;-64
2023/04/26 10:07:18;;;;;;;4.90;2.50;;;17.50;50.80;;;;;;5053648;28;20471;-66
2023/04/26 10:09:46;;;;;;;4.83;2.60;;;17.60;50.80;;;;;;5053710;28;20455;-65
2023/04/26 10:12:15;;;;;;;3.97;2.23;;;17.80;49.70;;;;;;5053627;28;20455;-65
2023/04/26 10:14:43;;;;;;;5.23;2.60;;;17.90;48.90;;;;;;5053269;28;20549;-65
2023/04/26 10:17:10;;;;;;;4.43;2.63;;;18.00;47.30;;;;;;5053188;28;20454;-65
2023/04/26 10:19:39;;;;;;;3.37;2.37;;;18.10;45.40;;;;;;5053230;28;21039;-65
2023/04/26 10:22:09;;;;;;;6.60;2.60;;;18.00;46.10;;;;;;5053460;28;20444;-65
2023/04/26 10:24:36;;;;;;;5.63;2.47;;;18.10;46.30;;;;;;5053631;28;20838;-65
2023/04/26 10:27:05;;;;;;;5.03;2.70;;;18.10;45.80;;;;;;5053422;28;20443;-65
2023/04/26 10:30:12;;;;;;;7.07;3.80;;;18.20;44.60;;;;;;5053113;28;20538;-65
2023/04/26 10:33:22;;;;;;;3.93;2.50;;;18.00;42.80;;;;;;5053386;28;20559;-65
2023/04/26 10:36:08;;;;;;;2.80;2.10;;;17.90;43.60;;;;;;5043570;28;20475;-65
2023/04/26 10:38:36;;;;;;;3.17;2.50;;;18.00;45.00;;;;;;5053378;28;20451;-65
2023/04/26 10:41:32;;;;;;;5.37;2.63;;;18.20;46.10;;;;;;5053260;28;20456;-65
2023/04/26 10:44:21;;;;;;;3.23;2.47;;;18.40;46.70;;;;;;5053322;28;20462;-65
2023/04/26 10:46:51;;;;;;;4.40;2.50;;;18.60;46.70;;;;;;5052467;28;20460;-63
2023/04/26 10:49:21;;;;;;;4.03;2.37;;;18.80;45.80;;;;;;5052834;28;20206;-65
2023/04/26 10:52:15;;;;;;;3.83;2.20;;;18.90;45.00;;;;;;5053099;28;20452;-65
2023/04/26 10:54:52;;;;;;;3.03;2.23;;;19.00;43.80;;;;;;5052969;28;20233;-65
2023/04/26 10:57:20;;;;;;;4.83;1.97;;;19.00;43.50;;;;;;5052583;28;20212;-65
2023/04/26 11:00:33;;;;;;;3.70;2.00;;;19.00;43.40;;;;;;5051568;28;20232;-65
2023/04/26 11:03:04;;;;;;;4.20;2.40;;;19.10;41.40;;;;;;5052901;28;20447;-65
2023/04/26 11:05:54;;;;;;;3.10;2.30;;;19.10;41.30;;;;;;5052641;28;20436;-65
2023/04/26 11:08:24;;;;;;;3.03;2.30;;;19.20;40.60;;;;;;5052452;28;20526;-63
2023/04/26 11:11:13;;;;;;;5.53;2.80;;;19.20;41.70;;;;;;5052681;28;20463;-63
2023/04/26 11:13:41;;;;;;;5.73;2.53;;;19.30;41.60;;;;;;5045519;28;20321;-65
2023/04/26 11:16:09;;;;;;;3.73;2.33;;;19.40;42.50;;;;;;5052554;28;20296;-65
2023/04/26 11:18:40;;;;;;;3.60;2.37;;;19.60;42.90;;;;;;5052229;28;20527;-65
2023/04/26 11:21:08;;;;;;;6.10;2.20;;;19.70;43.20;;;;;;5052316;28;20265;-65
2023/04/26 11:23:36;;;;;;;3.50;2.30;;;19.80;42.60;;;;;;5052613;28;20570;-65
2023/04/26 11:26:04;;;;;;;4.20;2.10;;;19.90;42.40;;;;;;5052418;28;20280;-66
2023/04/26 11:28:31;;;;;;;3.53;2.40;;;20.00;42.80;;;;;;5051674;28;20209;-66
2023/04/26 11:30:58;;;;;;;4.57;2.60;;;20.20;42.90;;;;;;5051881;28;20456;-65
2023/04/26 11:33:25;;;;;;;4.73;2.33;;;20.20;42.10;;;;;;5052062;28;20427;-65
2023/04/26 11:35:54;;;;;;;5.03;3.10;;;20.20;41.50;;;;;;5052215;28;20198;-65
2023/04/26 11:38:23;;;;;;;4.27;2.40;;;20.20;41.70;;;;;;5051683;28;20216;-65
2023/04/26 11:40:53;;;;;;;4.27;2.50;;;20.30;41.20;;;;;;5052006;28;20210;-65
2023/04/26 11:43:20;;;;;;;4.20;2.67;;;20.30;41.50;;;;;;5051206;28;20202;-65
2023/04/26 11:45:47;;;;;;;5.53;2.57;;;20.30;40.70;;;;;;5051896;28;20654;-65
2023/04/26 11:48:15;;;;;;;2.67;2.07;;;20.50;41.60;;;;;;5051787;28;20550;-65
2023/04/26 11:50:42;;;;;;;3.23;2.30;;;20.70;40.60;;;;;;5052183;28;20208;-65
2023/04/26 11:53:10;;;;;;;3.00;2.10;;;20.80;39.20;;;;;;5051687;28;20230;-64
2023/04/26 11:55:39;;;;;;;4.20;2.43;;;20.80;38.40;;;;;;5051566;28;20205;-64
2023/04/26 11:58:12;;;;;;;3.03;2.33;;;20.80;38.40;;;;;;5051096;28;20283;-65
2023/04/26 12:00:56;;;;;;;4.67;2.37;;;20.40;37.20;;;;;;5051546;28;20210;-65
2023/04/26 12:03:23;;;;;;;5.53;2.60;;;20.40;39.10;;;;;;5051538;28;20209;-66
2023/04/26 12:05:54;;;;;;;5.20;2.40;;;20.50;39.40;;;;;;5051765;28;20305;-64
2023/04/26 12:08:26;;;;;;;4.67;2.50;;;20.60;39.30;;;;;;5051564;28;20202;-65
2023/04/26 12:10:53;;;;;;;4.90;2.03;;;20.70;40.40;;;;;;5051379;28;20234;-65
2023/04/26 12:13:20;;;;;;;4.33;2.33;;;20.70;39.80;;;;;;5050297;28;20592;-65
2023/04/26 12:15:49;;;;;;;3.93;2.20;;;20.80;39.30;;;;;;5051403;28;20275;-65
2023/04/26 12:18:16;;;;;;;3.23;1.90;;;20.90;39.30;;;;;;5051099;28;20213;-65
2023/04/26 12:20:45;;;;;;;3.80;2.37;;;21.00;38.80;;;;;;5051310;28;20249;-65
2023/04/26 12:23:14;;;;;;;3.80;2.17;;;21.10;39.20;;;;;;5051270;28;20596;-65
2023/04/26 12:25:53;;;;;;;3.83;2.13;;;21.20;39.30;;;;;;5051128;28;20229;-65
2023/04/26 12:28:20;;;;;;;4.20;2.80;;;21.20;38.90;;;;;;5050655;28;20240;-65
2023/04/26 12:30:48;;;;;;;6.27;2.43;;;21.20;37.70;;;;;;5051010;28;20297;-65
2023/04/26 12:33:15;;;;;;;3.23;2.00;;;21.20;38.40;;;;;;5050749;28;20743;-65
2023/04/26 12:35:42;;;;;;;4.53;2.30;;;21.20;38.60;;;;;;5051172;28;20213;-65
2023/04/26 12:38:09;;;;;;;4.00;2.40;;;21.40;38.90;;;;;;5051100;28;20718;-65
2023/04/26 12:40:36;;;;;;;5.30;2.43;;;21.50;38.20;;;;;;5050712;28;20565;-65
2023/04/26 12:43:05;;;;;;;4.47;2.20;;;21.20;36.50;;;;;;5050294;28;20240;-65
2023/04/26 12:45:32;;;;;;;5.40;2.37;;;21.10;37.60;;;;;;5050711;28;20336;-65
2023/04/26 12:47:59;;;;;;;3.23;2.10;;;21.00;37.70;;;;;;5051124;28;20524;-65
2023/04/26 12:50:26;;;;;;;5.23;2.60;;;21.10;38.60;;;;;;5050607;28;20257;-65
2023/04/26 12:52:53;;;;;;;3.73;2.37;;;21.20;38.90;;;;;;5051083;28;20248;-65
2023/04/26 12:55:20;;;;;;;5.57;2.47;;;21.30;38.40;;;;;;5050275;28;20221;-66